الصفحة الرئيسية
METAR-TAF:

METAR-TAF

مطار :

Puerto Peñasco, المكسيك

دائرة عرض: 31-21-07N, خط طول: 113-18-20W, ارتفاع: 22 متر

مراقبة الطقس الحالي

تاريخ ووقت الإصدار 9ساعات و 43 دقيقة قبل الساعة 22:48UTC
ريح 10 عقدة من الجنوب
درجة الحرارة 21°درجة مئوية
الرطوبة 56%
ضغط 1014 hPa
الرؤية: 16.1 كم
غيوم قليلة على ارتفاع 10000 قدم
ملبد بالغيوم على ارتفاع 20000 قدم

METAR: MMPE 202248Z 19010KT 10SM FEW100 OVC200 21/12 A2993 RMK 8/017

زمن: 01:31 (08:31 UTC)


TAF: مفقودة

أرصاد الطقس والتوقعات من أكثر من 4000 مطار (تقارير الطقس للمطار METAR والتنبؤ بالطقس بالمطارTAF).

المحطات المتاحة هي النقط الصفراء والحمراء على الخريطة.

حرك المؤشر فوق النقطة لمعرفة اسم المحطة.

ثم انقر لمعرفة أرصاد وتوقعات الطقس.

لتغيير الخارطة: اضغط على الأزرار الخضراء مع رمز الصليب الأسود للتكبير. على الزر الأخضر مع شرطة للتصغير، أو على الأسهم الخضراء للخرائط المجاورة.


METAR-TAF: